Lanely, Texas
Current Conditions -  °F | °C
As of 9:35 AM on Saturday 25 Oct 2014 (Local Time) from KLXY Reporting Station
Clear Clear  
Wind Chill: 68°   Ceiling: Unl
Heat Index: 68°   Visibility: 10mi
Dew Point: 60°   Wind: 6mph
Humidity: 77%   Direction: 190°S
Pressure: 30.18"   Gusts: NA
Location:  31.4723°N, 96.0615°W
Report Text: KLXY 251435Z AUTO 19005KT 10SM CLR 20/16 A3018 RMK AO2 T01980156
Loading
Personal Weather Stations






























Interactive Weather Map
Tropical Storm Tracking
New forecast layout! Learn more

10-Day Weather Forecast

Advertisements
Track Severe Weather on mobile